Time;durP1;ratioP1;P1;durP2;ratioP2;P2;SDS_P1;SDS_P2;PMS_P1;PMS_P2;Temp;Humidity;BMP_temperature;BMP_pressure;BME280_temperature;BME280_humidity;BME280_pressure;Samples;Min_cycle;Max_cycle;Signal;HPM_P1;HPM_P2
2022/09/23 00:01:31;;;;;;;4.78;2.33;;;13.40;70.20;;;;;;5050572;28;20510;-79
2022/09/23 00:03:57;;;;;;;4.65;2.60;;;13.40;70.20;;;;;;5045662;28;20028;-79
2022/09/23 00:06:24;;;;;;;4.32;2.47;;;13.40;70.30;;;;;;5068101;28;20175;-79
2022/09/23 00:08:50;;;;;;;5.43;2.60;;;13.40;70.30;;;;;;5063208;28;20017;-79
2022/09/23 00:11:17;;;;;;;3.53;2.60;;;13.30;70.40;;;;;;5056821;28;20193;-79
2022/09/23 00:13:45;;;;;;;4.75;2.63;;;13.30;70.40;;;;;;5065720;28;20030;-79
2022/09/23 00:16:14;;;;;;;4.22;2.47;;;13.20;70.40;;;;;;5056399;28;20035;-80
2022/09/23 00:18:40;;;;;;;4.07;2.45;;;13.20;70.50;;;;;;5054591;28;20305;-79
2022/09/23 00:21:09;;;;;;;3.80;2.37;;;13.20;70.60;;;;;;5076641;28;20100;-79
2022/09/23 00:23:37;;;;;;;4.22;2.70;;;13.10;70.70;;;;;;5060090;28;20024;-79
2022/09/23 00:26:05;;;;;;;3.55;2.40;;;13.00;70.60;;;;;;5077843;28;20031;-79
2022/09/23 00:28:31;;;;;;;4.38;2.80;;;13.00;71.50;;;;;;5070640;28;20430;-79
2022/09/23 00:31:05;;;;;;;3.67;2.40;;;13.00;70.70;;;;;;5073040;28;20056;-79
2022/09/23 00:33:31;;;;;;;5.43;2.40;;;12.90;71.00;;;;;;5061496;28;20484;-79
2022/09/23 00:36:02;;;;;;;4.97;2.53;;;12.90;70.90;;;;;;5064798;28;20275;-79
2022/09/23 00:38:28;;;;;;;4.25;2.45;;;12.80;71.10;;;;;;5074119;28;20054;-79
2022/09/23 00:40:54;;;;;;;4.10;2.33;;;12.80;70.80;;;;;;5066373;28;20472;-79
2022/09/23 00:43:46;;;;;;;3.95;2.30;;;12.80;71.00;;;;;;5064233;28;20212;-79
2022/09/23 00:46:17;;;;;;;3.85;2.20;;;12.70;71.80;;;;;;5078199;28;20244;-79
2022/09/23 00:48:44;;;;;;;4.18;2.38;;;12.70;71.20;;;;;;5070303;28;20496;-79
2022/09/23 00:51:16;;;;;;;4.35;2.55;;;12.60;71.00;;;;;;5076831;28;20774;-79
2022/09/23 00:53:43;;;;;;;3.07;2.17;;;12.60;71.30;;;;;;5066954;28;20274;-79
2022/09/23 00:56:10;;;;;;;3.80;2.25;;;12.60;71.20;;;;;;5060908;28;20036;-80
2022/09/23 00:58:40;;;;;;;3.45;2.35;;;12.50;71.30;;;;;;5075118;28;20029;-79
2022/09/23 01:01:06;;;;;;;4.40;2.67;;;12.50;71.50;;;;;;5035900;28;20033;-80
2022/09/23 01:03:32;;;;;;;3.40;2.60;;;12.50;71.40;;;;;;5058927;28;20027;-80
2022/09/23 01:05:58;;;;;;;3.90;2.50;;;12.40;71.50;;;;;;5070339;28;20043;-80
2022/09/23 01:08:25;;;;;;;3.88;2.58;;;12.40;71.80;;;;;;5073622;28;20028;-80
2022/09/23 01:11:10;;;;;;;4.13;2.60;;;12.40;71.80;;;;;;5068898;28;20270;-80
2022/09/23 01:14:07;;;;;;;3.50;2.42;;;12.30;72.90;;;;;;5059496;28;20028;-80
2022/09/23 01:16:42;;;;;;;4.18;2.60;;;12.30;72.90;;;;;;5058839;28;20032;-80
2022/09/23 01:19:30;;;;;;;3.85;2.25;;;12.30;72.20;;;;;;5065248;28;20591;-80
2022/09/23 01:22:10;;;;;;;4.60;2.50;;;12.30;73.20;;;;;;5079640;28;20140;-80
2022/09/23 01:24:48;;;;;;;2.90;2.10;;;12.20;72.70;;;;;;5063088;28;20101;-80
2022/09/23 01:27:36;;;;;;;4.38;2.70;;;12.20;73.10;;;;;;5073984;28;20048;-80
2022/09/23 01:30:30;;;;;;;4.40;2.40;;;12.20;73.40;;;;;;5047204;28;20252;-80
2022/09/23 01:33:14;;;;;;;3.95;2.38;;;12.20;73.10;;;;;;5076782;28;20126;-80
2022/09/23 01:36:00;;;;;;;3.70;2.22;;;12.20;73.20;;;;;;5058418;28;20645;-79
2022/09/23 01:38:45;;;;;;;5.23;2.40;;;12.20;72.60;;;;;;5083443;28;20428;-80
2022/09/23 01:41:27;;;;;;;3.60;2.33;;;12.20;73.40;;;;;;5076055;28;20112;-80
2022/09/23 01:43:55;;;;;;;3.97;2.50;;;12.10;73.00;;;;;;5068665;28;20020;-80
2022/09/23 01:46:33;;;;;;;4.28;2.53;;;12.20;72.60;;;;;;5056532;28;20097;-80
2022/09/23 01:49:48;;;;;;;3.50;2.47;;;12.10;73.30;;;;;;5074832;27;20119;-80
2022/09/23 01:52:46;;;;;;;3.73;2.37;;;12.10;73.80;;;;;;5048706;28;20062;-80
2022/09/23 01:55:23;;;;;;;3.40;2.10;;;12.00;73.40;;;;;;5080418;27;20101;-80
2022/09/23 01:58:00;;;;;;;4.65;2.10;;;12.00;73.20;;;;;;5081864;28;20055;-80
2022/09/23 02:00:28;;;;;;;3.95;2.30;;;12.00;73.10;;;;;;5083125;28;20016;-80
2022/09/23 02:03:04;;;;;;;3.53;2.45;;;12.00;73.00;;;;;;5038008;28;20175;-80
2022/09/23 02:05:47;;;;;;;3.63;2.20;;;12.00;73.40;;;;;;5075601;28;20028;-80
2022/09/23 02:08:21;;;;;;;3.83;2.25;;;12.00;73.80;;;;;;5071741;28;20240;-80
2022/09/23 02:10:51;;;;;;;3.22;2.28;;;12.00;73.20;;;;;;5083461;28;20032;-80
2022/09/23 02:13:44;;;;;;;3.17;2.20;;;12.00;73.10;;;;;;5076143;28;20528;-80
2022/09/23 02:16:33;;;;;;;3.65;2.55;;;11.90;73.20;;;;;;5080510;27;20052;-80
2022/09/23 02:19:11;;;;;;;2.83;2.17;;;11.90;73.40;;;;;;5070525;28;20519;-80
2022/09/23 02:21:44;;;;;;;3.03;2.10;;;11.90;73.30;;;;;;5054945;28;20701;-80
2022/09/23 02:24:14;;;;;;;3.35;2.22;;;11.90;73.20;;;;;;5076315;28;20506;-80
2022/09/23 02:26:45;;;;;;;3.53;2.15;;;11.80;73.10;;;;;;5069809;28;20078;-80
2022/09/23 02:29:17;;;;;;;3.20;2.40;;;11.80;73.00;;;;;;5077464;28;20044;-80
2022/09/23 02:31:53;;;;;;;3.30;2.27;;;11.80;73.00;;;;;;5087713;28;20562;-80
2022/09/23 02:34:37;;;;;;;3.10;2.20;;;11.80;73.20;;;;;;5059236;28;20554;-80
2022/09/23 02:37:30;;;;;;;2.85;2.13;;;11.70;73.90;;;;;;5041538;28;20316;-80
2022/09/23 02:40:24;;;;;;;3.45;2.10;;;11.70;74.50;;;;;;5083006;27;20040;-80
2022/09/23 02:43:26;;;;;;;3.20;2.15;;;11.70;74.00;;;;;;5077154;28;20148;-80
2022/09/23 02:45:52;;;;;;;3.33;2.20;;;11.60;74.00;;;;;;5079992;27;20032;-80
2022/09/23 02:48:36;;;;;;;3.92;2.60;;;11.60;73.30;;;;;;5059184;28;20708;-80
2022/09/23 02:51:03;;;;;;;3.10;2.30;;;11.50;73.80;;;;;;5078494;28;20392;-80
2022/09/23 02:53:33;;;;;;;3.20;1.92;;;11.50;73.50;;;;;;5063101;28;20431;-80
2022/09/23 02:56:13;;;;;;;3.60;2.22;;;11.50;74.00;;;;;;5071573;28;20569;-80
2022/09/23 02:58:39;;;;;;;5.43;2.30;;;11.50;74.50;;;;;;5074918;28;20066;-80
2022/09/23 03:01:31;;;;;;;3.65;2.25;;;11.50;73.90;;;;;;5074359;28;20111;-80
2022/09/23 03:04:08;;;;;;;3.45;2.15;;;11.40;74.30;;;;;;5068188;27;20635;-80
2022/09/23 03:06:46;;;;;;;3.15;2.20;;;11.50;74.50;;;;;;5047579;28;20027;-80
2022/09/23 03:09:24;;;;;;;3.28;2.33;;;11.50;74.70;;;;;;5074935;28;20477;-80
2022/09/23 03:12:04;;;;;;;3.23;2.17;;;11.40;74.80;;;;;;5072078;28;20256;-80
2022/09/23 03:15:00;;;;;;;2.92;2.05;;;11.50;74.80;;;;;;5068417;28;20397;-80
2022/09/23 03:17:33;;;;;;;3.13;2.17;;;11.40;75.00;;;;;;5077373;28;20040;-80
2022/09/23 03:20:11;;;;;;;3.40;2.22;;;11.40;74.40;;;;;;5053737;28;20720;-80
2022/09/23 03:22:50;;;;;;;2.95;2.20;;;11.40;74.80;;;;;;5065268;28;20409;-80
2022/09/23 03:25:20;;;;;;;3.90;2.20;;;11.40;74.90;;;;;;5073447;28;20287;-80
2022/09/23 03:27:45;;;;;;;3.25;2.05;;;11.40;74.60;;;;;;5059586;28;20116;-80
2022/09/23 03:30:12;;;;;;;3.40;2.10;;;11.40;74.50;;;;;;5067726;28;20753;-80
2022/09/23 03:32:43;;;;;;;3.83;2.20;;;11.40;74.60;;;;;;5080332;28;20024;-80
2022/09/23 03:35:09;;;;;;;2.90;2.17;;;11.40;74.80;;;;;;5057567;28;20131;-80
2022/09/23 03:37:46;;;;;;;3.33;2.30;;;11.30;74.60;;;;;;5072456;28;20115;-80
2022/09/23 03:40:24;;;;;;;3.50;2.17;;;11.30;74.80;;;;;;5076555;28;20024;-80
2022/09/23 03:42:50;;;;;;;2.55;1.95;;;11.30;74.80;;;;;;5069255;28;20221;-80
2022/09/23 03:45:20;;;;;;;3.10;2.20;;;11.30;74.70;;;;;;5075770;28;20028;-80
2022/09/23 03:47:46;;;;;;;2.85;2.10;;;11.30;75.60;;;;;;5087158;28;20104;-80
2022/09/23 03:50:12;;;;;;;3.28;2.10;;;11.20;74.80;;;;;;5035733;28;20056;-80
2022/09/23 03:52:39;;;;;;;3.15;2.00;;;11.30;74.90;;;;;;5059392;28;20020;-80
2022/09/23 03:55:06;;;;;;;4.18;2.58;;;11.20;75.00;;;;;;5074439;28;20070;-80
2022/09/23 03:57:32;;;;;;;3.27;2.40;;;11.20;75.10;;;;;;5070884;28;20115;-80
2022/09/23 03:59:57;;;;;;;3.63;2.25;;;11.20;75.10;;;;;;5072739;28;20145;-80
2022/09/23 04:02:23;;;;;;;2.93;2.10;;;11.20;75.20;;;;;;5079495;28;20123;-80
2022/09/23 04:04:49;;;;;;;3.83;2.15;;;11.20;75.30;;;;;;5047068;28;20536;-80
2022/09/23 04:07:15;;;;;;;3.43;2.40;;;11.20;75.30;;;;;;5041542;28;20080;-80
2022/09/23 04:09:41;;;;;;;3.55;2.13;;;11.20;75.40;;;;;;5046575;28;20107;-80
2022/09/23 04:12:10;;;;;;;3.05;2.25;;;11.20;75.50;;;;;;5078106;28;20034;-80
2022/09/23 04:14:36;;;;;;;4.23;2.10;;;11.20;75.60;;;;;;5071207;28;20575;-80
2022/09/23 04:17:01;;;;;;;2.95;2.15;;;11.20;75.70;;;;;;5061106;28;20019;-80
2022/09/23 04:19:27;;;;;;;2.97;1.90;;;11.20;75.80;;;;;;5064967;28;20428;-80
2022/09/23 04:21:52;;;;;;;2.97;2.10;;;11.30;75.90;;;;;;5048290;28;20498;-80
2022/09/23 04:24:18;;;;;;;2.90;2.00;;;11.30;76.10;;;;;;5065341;28;20388;-80
2022/09/23 04:26:44;;;;;;;3.10;2.17;;;11.30;76.10;;;;;;5076757;28;20043;-80
2022/09/23 04:29:10;;;;;;;2.93;2.07;;;11.30;76.10;;;;;;5072226;28;20121;-80
2022/09/23 04:31:36;;;;;;;2.78;2.00;;;11.30;76.10;;;;;;5053283;28;20032;-80
2022/09/23 04:34:01;;;;;;;3.53;1.87;;;11.40;76.20;;;;;;5061590;28;20226;-80
2022/09/23 04:36:29;;;;;;;3.05;2.00;;;11.40;76.30;;;;;;5056370;28;20470;-80
2022/09/23 04:38:55;;;;;;;2.95;2.05;;;11.40;76.30;;;;;;5045917;28;20039;-80
2022/09/23 04:41:21;;;;;;;2.83;1.92;;;11.40;76.30;;;;;;5063222;28;20412;-80
2022/09/23 04:43:46;;;;;;;3.03;1.90;;;11.40;76.30;;;;;;5061773;28;20032;-81
2022/09/23 04:46:14;;;;;;;3.22;2.13;;;11.40;76.30;;;;;;5066441;28;20020;-80
2022/09/23 04:48:40;;;;;;;3.70;1.95;;;11.40;76.40;;;;;;5068892;28;20520;-80
2022/09/23 04:51:09;;;;;;;2.93;2.00;;;11.40;76.50;;;;;;5035897;28;20400;-80
2022/09/23 04:53:36;;;;;;;2.80;1.80;;;11.40;76.70;;;;;;5068497;28;20050;-80
2022/09/23 04:56:04;;;;;;;3.05;1.90;;;11.40;76.50;;;;;;5051529;28;20192;-80
2022/09/23 04:58:30;;;;;;;3.20;2.17;;;11.40;76.60;;;;;;5064438;28;20499;-80
2022/09/23 05:00:56;;;;;;;4.20;1.95;;;11.40;76.60;;;;;;5071205;28;20504;-80
2022/09/23 05:03:23;;;;;;;3.20;1.87;;;11.40;76.60;;;;;;5054447;28;20073;-80
2022/09/23 05:05:49;;;;;;;2.90;1.90;;;11.40;76.60;;;;;;5067358;28;20043;-80
2022/09/23 05:08:14;;;;;;;2.65;1.70;;;11.40;76.60;;;;;;5044006;28;20020;-80
2022/09/23 05:10:41;;;;;;;3.00;1.93;;;11.40;76.60;;;;;;5063224;28;20020;-80
2022/09/23 05:13:07;;;;;;;3.35;1.90;;;11.40;76.60;;;;;;5067120;28;20554;-80
2022/09/23 05:15:33;;;;;;;3.15;2.10;;;11.40;76.60;;;;;;5076997;28;20023;-80
2022/09/23 05:17:59;;;;;;;3.10;2.13;;;11.40;76.80;;;;;;5055148;28;20503;-80
2022/09/23 05:20:25;;;;;;;2.28;1.70;;;11.40;76.90;;;;;;5070927;28;20401;-80
2022/09/23 05:22:54;;;;;;;2.72;1.90;;;11.40;76.90;;;;;;5050403;28;20277;-81
2022/09/23 05:25:21;;;;;;;3.03;1.77;;;11.40;76.90;;;;;;5058078;28;20227;-80
2022/09/23 05:27:46;;;;;;;3.70;2.45;;;11.40;76.90;;;;;;5066538;28;20048;-80
2022/09/23 05:30:12;;;;;;;3.35;1.83;;;11.40;76.90;;;;;;5061583;28;20032;-80
2022/09/23 05:32:38;;;;;;;2.30;1.80;;;11.40;76.90;;;;;;5057940;28;20408;-80
2022/09/23 05:35:03;;;;;;;2.80;1.90;;;11.40;76.90;;;;;;5070952;28;20024;-80
2022/09/23 05:37:31;;;;;;;3.43;2.00;;;11.40;76.90;;;;;;5064445;28;20115;-80
2022/09/23 05:39:57;;;;;;;3.50;1.63;;;11.30;76.90;;;;;;5059650;28;20393;-80
2022/09/23 05:42:22;;;;;;;2.40;1.80;;;11.30;76.90;;;;;;5056737;28;20043;-80
2022/09/23 05:44:48;;;;;;;3.17;1.97;;;11.30;76.90;;;;;;5080598;28;20351;-80
2022/09/23 05:47:14;;;;;;;3.30;1.85;;;11.30;76.90;;;;;;5058375;28;20055;-80
2022/09/23 05:49:40;;;;;;;4.00;1.80;;;11.30;77.00;;;;;;5061775;28;20019;-80
2022/09/23 05:52:06;;;;;;;2.38;1.77;;;11.30;77.10;;;;;;5038231;28;20021;-80
2022/09/23 05:54:31;;;;;;;2.60;2.00;;;11.30;77.20;;;;;;5048068;27;20508;-80
2022/09/23 05:56:57;;;;;;;4.07;2.30;;;11.20;77.20;;;;;;5057341;28;20588;-80
2022/09/23 05:59:23;;;;;;;3.47;2.10;;;11.30;77.40;;;;;;5061866;28;20680;-80
2022/09/23 06:01:48;;;;;;;3.38;2.00;;;11.30;78.20;;;;;;5066217;28;20479;-80
2022/09/23 06:04:17;;;;;;;3.40;2.00;;;11.30;77.60;;;;;;5048676;28;20036;-80
2022/09/23 06:06:42;;;;;;;3.78;2.08;;;11.30;77.70;;;;;;5058381;28;20542;-80
2022/09/23 06:09:13;;;;;;;3.33;2.30;;;11.30;77.90;;;;;;5035803;28;20021;-80
2022/09/23 06:11:40;;;;;;;3.10;1.90;;;11.30;78.40;;;;;;5052775;28;20016;-80
2022/09/23 06:14:08;;;;;;;2.95;1.90;;;11.40;78.30;;;;;;5062905;28;20056;-80
2022/09/23 06:16:34;;;;;;;4.00;1.83;;;11.40;78.40;;;;;;5062183;28;20024;-80
2022/09/23 06:19:06;;;;;;;3.08;1.98;;;11.50;78.60;;;;;;5065186;28;20267;-80
2022/09/23 06:21:34;;;;;;;4.13;1.87;;;11.50;78.70;;;;;;5066472;27;20163;-80
2022/09/23 06:24:01;;;;;;;2.78;2.00;;;11.60;79.00;;;;;;5043234;28;20285;-80
2022/09/23 06:26:27;;;;;;;2.70;1.70;;;11.60;79.10;;;;;;5046684;28;20193;-80
2022/09/23 06:28:53;;;;;;;2.20;1.77;;;11.70;79.30;;;;;;5055333;28;20050;-80
2022/09/23 06:31:19;;;;;;;4.17;2.07;;;11.80;79.40;;;;;;5030378;28;20070;-79
2022/09/23 06:33:45;;;;;;;3.83;2.22;;;11.80;79.50;;;;;;5043056;28;20039;-80
2022/09/23 06:36:12;;;;;;;4.53;2.20;;;11.90;79.60;;;;;;5070765;28;20640;-80
2022/09/23 06:38:47;;;;;;;2.97;2.15;;;12.00;79.80;;;;;;5035349;28;20020;-80
2022/09/23 06:41:13;;;;;;;4.35;2.30;;;12.10;80.10;;;;;;5043857;28;20649;-80
2022/09/23 06:43:38;;;;;;;2.93;1.83;;;12.20;80.00;;;;;;5050881;28;20019;-80
2022/09/23 06:46:06;;;;;;;2.90;1.73;;;12.30;80.10;;;;;;5051729;28;20297;-80
2022/09/23 06:48:34;;;;;;;3.70;1.70;;;12.40;80.20;;;;;;5053527;28;20047;-80
2022/09/23 06:51:02;;;;;;;3.42;2.08;;;12.50;80.30;;;;;;5051173;28;20024;-80
2022/09/23 06:53:31;;;;;;;4.55;2.20;;;12.60;80.20;;;;;;5048258;28;20027;-80
2022/09/23 06:56:06;;;;;;;3.13;1.67;;;12.70;80.30;;;;;;5033642;28;20760;-80
2022/09/23 06:58:33;;;;;;;2.97;1.73;;;12.80;80.60;;;;;;5066249;28;20188;-80
2022/09/23 07:01:05;;;;;;;3.33;1.80;;;12.90;80.40;;;;;;5052394;28;20313;-80
2022/09/23 07:03:31;;;;;;;3.42;1.90;;;13.00;80.70;;;;;;5063115;28;20024;-80
2022/09/23 07:05:58;;;;;;;4.28;2.30;;;13.10;80.50;;;;;;5060542;28;20035;-80
2022/09/23 07:08:26;;;;;;;5.10;2.17;;;13.10;80.50;;;;;;5067935;28;20036;-80
2022/09/23 07:10:59;;;;;;;3.20;1.85;;;13.20;80.70;;;;;;5051576;28;20028;-80
2022/09/23 07:13:25;;;;;;;3.25;1.90;;;13.30;80.80;;;;;;5044872;28;20047;-80
2022/09/23 07:15:52;;;;;;;4.38;2.17;;;13.40;80.80;;;;;;5072526;27;20535;-80
2022/09/23 07:18:20;;;;;;;3.30;2.15;;;13.50;80.90;;;;;;5054218;28;20020;-80
2022/09/23 07:20:47;;;;;;;4.43;1.80;;;13.60;81.20;;;;;;5063379;28;20145;-81
2022/09/23 07:23:12;;;;;;;3.30;2.03;;;13.80;81.40;;;;;;5058878;28;20370;-80
2022/09/23 07:25:38;;;;;;;3.33;2.17;;;13.90;81.40;;;;;;5049015;28;20028;-80
2022/09/23 07:28:05;;;;;;;3.33;1.90;;;14.00;81.70;;;;;;5038822;28;20429;-80
2022/09/23 07:30:31;;;;;;;4.90;2.13;;;14.20;82.00;;;;;;5058232;28;20043;-81
2022/09/23 07:32:56;;;;;;;3.95;2.13;;;14.40;82.30;;;;;;5055760;28;20487;-80
2022/09/23 07:35:22;;;;;;;3.27;2.00;;;14.50;82.20;;;;;;5069330;28;20089;-81
2022/09/23 07:37:49;;;;;;;4.30;2.20;;;14.70;82.20;;;;;;5042996;28;20040;-81
2022/09/23 07:40:15;;;;;;;3.43;2.17;;;14.80;81.60;;;;;;5064708;28;20100;-80
2022/09/23 07:42:40;;;;;;;3.72;2.10;;;15.00;81.40;;;;;;5056675;28;20032;-80
2022/09/23 07:45:07;;;;;;;4.47;2.17;;;15.10;81.40;;;;;;5050166;28;20046;-80
2022/09/23 07:47:34;;;;;;;4.17;2.10;;;15.20;82.10;;;;;;5051178;28;20345;-80
2022/09/23 07:49:59;;;;;;;3.53;1.98;;;15.30;81.20;;;;;;5061743;28;20108;-81
2022/09/23 07:52:25;;;;;;;4.25;2.20;;;15.40;80.90;;;;;;5052068;28;20044;-80
2022/09/23 07:54:51;;;;;;;4.20;1.90;;;15.50;80.80;;;;;;5040859;28;20280;-80
2022/09/23 07:57:17;;;;;;;4.47;2.20;;;15.50;80.90;;;;;;5053214;28;20043;-81
2022/09/23 07:59:42;;;;;;;3.80;2.10;;;15.60;80.90;;;;;;5030996;28;20128;-81
2022/09/23 08:02:11;;;;;;;4.15;2.22;;;15.70;81.00;;;;;;5057218;28;20024;-80
2022/09/23 08:04:36;;;;;;;3.67;2.13;;;15.80;80.80;;;;;;5070387;28;20311;-81
2022/09/23 08:07:04;;;;;;;5.00;2.35;;;15.90;80.70;;;;;;5058199;28;20024;-80
2022/09/23 08:09:40;;;;;;;4.45;2.25;;;16.00;80.50;;;;;;5040485;28;20361;-81
2022/09/23 08:12:07;;;;;;;4.03;2.40;;;16.10;80.40;;;;;;5055878;28;20051;-80
2022/09/23 08:14:33;;;;;;;5.67;2.30;;;16.10;80.70;;;;;;5066859;28;20503;-81
2022/09/23 08:16:59;;;;;;;5.20;2.13;;;16.30;80.80;;;;;;5041500;28;20319;-81
2022/09/23 08:19:24;;;;;;;4.60;2.40;;;16.40;80.90;;;;;;5063837;28;20020;-81
2022/09/23 08:21:51;;;;;;;4.53;2.33;;;16.60;80.90;;;;;;5059951;28;20605;-80
2022/09/23 08:24:18;;;;;;;6.55;2.22;;;16.70;80.50;;;;;;5054032;28;20024;-80
2022/09/23 08:26:45;;;;;;;4.35;2.17;;;16.80;80.90;;;;;;5037942;28;21644;-81
2022/09/23 08:29:12;;;;;;;4.57;2.20;;;16.90;80.00;;;;;;5056223;28;20408;-80
2022/09/23 08:31:38;;;;;;;5.00;2.30;;;17.00;79.90;;;;;;5033676;28;20040;-81
2022/09/23 08:34:05;;;;;;;5.03;2.58;;;17.10;79.90;;;;;;5055357;28;20090;-81
2022/09/23 08:36:30;;;;;;;5.33;2.30;;;17.20;80.90;;;;;;5072107;28;20028;-81
2022/09/23 08:38:56;;;;;;;5.13;2.20;;;17.30;80.20;;;;;;5061491;28;20089;-81
2022/09/23 08:41:22;;;;;;;4.17;2.20;;;17.40;80.00;;;;;;5042478;28;20550;-81
2022/09/23 08:44:03;;;;;;;6.03;2.30;;;17.50;79.90;;;;;;5037593;28;20532;-81
2022/09/23 08:46:36;;;;;;;4.93;2.30;;;17.70;79.30;;;;;;5062446;28;20242;-80
2022/09/23 08:49:06;;;;;;;6.20;2.30;;;17.80;79.60;;;;;;5048180;28;20061;-81
2022/09/23 08:51:45;;;;;;;4.63;2.50;;;18.00;79.60;;;;;;5063938;28;20027;-80
2022/09/23 08:54:12;;;;;;;5.70;2.45;;;18.10;78.80;;;;;;5056225;28;20024;-81
2022/09/23 08:56:38;;;;;;;5.68;2.50;;;18.30;79.60;;;;;;5033518;28;20032;-81
2022/09/23 08:59:34;;;;;;;5.93;2.58;;;18.40;79.90;;;;;;5033962;28;20111;-81
2022/09/23 09:02:08;;;;;;;4.27;2.17;;;18.60;78.40;;;;;;5068850;28;20146;-81
2022/09/23 09:04:41;;;;;;;7.22;2.80;;;18.80;79.70;;;;;;5039990;28;20020;-81
2022/09/23 09:07:08;;;;;;;5.65;2.47;;;19.10;79.40;;;;;;5039902;28;20028;-80
2022/09/23 09:09:51;;;;;;;6.47;2.40;;;19.30;80.30;;;;;;5062605;28;20667;-81
2022/09/23 09:12:41;;;;;;;5.32;2.42;;;19.50;78.90;;;;;;5051237;28;20134;-80
2022/09/23 09:15:13;;;;;;;4.93;2.53;;;19.80;77.50;;;;;;5044043;28;20039;-81
2022/09/23 09:17:47;;;;;;;6.28;2.58;;;20.00;78.40;;;;;;5057359;28;20111;-81
2022/09/23 09:20:22;;;;;;;5.63;2.53;;;20.20;77.70;;;;;;5033382;28;20036;-81
2022/09/23 09:22:56;;;;;;;4.93;2.55;;;20.40;77.60;;;;;;5054999;28;20059;-80
2022/09/23 09:25:48;;;;;;;5.10;2.60;;;20.60;77.00;;;;;;5045897;28;20542;-80
2022/09/23 09:28:23;;;;;;;4.80;2.50;;;20.80;77.00;;;;;;5045355;28;20059;-80
2022/09/23 09:31:21;;;;;;;4.82;2.70;;;20.90;76.90;;;;;;5037994;28;20021;-80
2022/09/23 09:34:04;;;;;;;4.78;2.33;;;21.20;76.50;;;;;;5061016;28;20040;-81
2022/09/23 09:36:34;;;;;;;5.50;2.53;;;21.40;76.00;;;;;;5053371;28;20055;-81
2022/09/23 09:39:01;;;;;;;5.57;2.60;;;21.50;75.30;;;;;;5045807;28;20036;-80
2022/09/23 09:41:30;;;;;;;6.47;2.43;;;21.60;75.40;;;;;;5075328;28;20028;-81
2022/09/23 09:43:58;;;;;;;6.25;2.55;;;21.70;75.10;;;;;;5058515;28;20111;-81
2022/09/23 09:46:45;;;;;;;4.57;2.40;;;21.70;74.60;;;;;;5043892;28;20040;-81
2022/09/23 09:49:39;;;;;;;5.20;2.50;;;21.80;73.10;;;;;;5053707;28;20231;-81
2022/09/23 09:52:25;;;;;;;6.53;2.58;;;21.80;71.50;;;;;;5032173;28;20031;-81
2022/09/23 09:54:51;;;;;;;6.20;2.83;;;21.80;71.20;;;;;;5056464;28;20047;-80
2022/09/23 09:57:35;;;;;;;6.05;2.50;;;21.80;73.00;;;;;;5052160;28;20024;-81
2022/09/23 10:00:24;;;;;;;6.85;2.58;;;21.80;71.80;;;;;;5057008;28;21016;-80
2022/09/23 10:02:58;;;;;;;4.75;2.60;;;21.80;69.90;;;;;;5035356;28;20463;-81
2022/09/23 10:05:47;;;;;;;5.45;2.40;;;21.80;71.10;;;;;;5045316;28;20167;-81
2022/09/23 10:08:34;;;;;;;4.90;2.40;;;21.80;69.70;;;;;;5055726;28;20134;-81
2022/09/23 10:11:08;;;;;;;5.90;2.53;;;21.80;70.20;;;;;;5062498;28;20132;-80
2022/09/23 10:13:34;;;;;;;7.00;2.42;;;21.90;72.70;;;;;;5061842;28;20012;-81
2022/09/23 10:16:02;;;;;;;5.80;2.60;;;22.00;72.80;;;;;;5068973;28;20046;-81
2022/09/23 10:18:31;;;;;;;5.47;2.75;;;22.10;72.20;;;;;;5044949;28;20048;-81
2022/09/23 10:21:13;;;;;;;7.53;2.65;;;22.20;72.20;;;;;;5069173;28;20089;-81
2022/09/23 10:23:45;;;;;;;5.97;2.70;;;22.40;70.90;;;;;;5048168;28;22713;-80
2022/09/23 10:26:12;;;;;;;5.15;2.72;;;22.60;71.60;;;;;;5058786;28;20021;-80
2022/09/23 10:28:40;;;;;;;4.67;2.53;;;22.80;73.10;;;;;;5064361;28;20154;-80
2022/09/23 10:31:14;;;;;;;5.32;2.50;;;23.10;73.60;;;;;;5065805;28;20112;-81
2022/09/23 10:33:47;;;;;;;5.95;2.55;;;23.50;71.80;;;;;;5051933;28;20028;-81
2022/09/23 10:36:14;;;;;;;5.10;2.45;;;23.80;73.30;;;;;;5065552;28;20035;-81
2022/09/23 10:38:40;;;;;;;5.07;2.40;;;24.00;72.30;;;;;;5062198;28;20167;-81
2022/09/23 10:47:38;;;;;;;4.20;2.35;;;24.90;67.40;;;;;;5074350;28;20127;-80
2022/09/23 10:50:19;;;;;;;3.60;2.00;;;25.10;67.30;;;;;;5076172;28;20032;-81
2022/09/23 10:52:53;;;;;;;4.60;1.87;;;25.30;67.90;;;;;;5053797;28;20645;-81
2022/09/23 10:55:53;;;;;;;3.33;1.75;;;25.40;68.70;;;;;;5059260;28;20472;-80
2022/09/23 10:58:29;;;;;;;4.13;1.80;;;25.50;64.30;;;;;;5092744;27;20065;-80
2022/09/23 11:01:19;;;;;;;3.38;1.70;;;25.50;64.50;;;;;;5072464;28;20043;-80
2022/09/23 11:04:04;;;;;;;4.22;1.90;;;25.50;62.90;;;;;;5041477;28;20036;-81
2022/09/23 11:06:43;;;;;;;3.17;1.60;;;25.50;63.10;;;;;;5074856;27;20043;-81
2022/09/23 11:09:23;;;;;;;2.95;1.90;;;25.40;64.00;;;;;;5063788;28;20046;-81
2022/09/23 11:12:16;;;;;;;3.15;1.70;;;25.40;64.50;;;;;;5067733;28;20054;-81
2022/09/23 11:14:52;;;;;;;2.38;1.55;;;25.30;61.90;;;;;;5070241;28;20150;-80
2022/09/23 11:17:47;;;;;;;3.38;1.50;;;25.10;62.40;;;;;;5054173;28;20097;-80
2022/09/23 11:20:37;;;;;;;2.53;1.67;;;25.00;61.40;;;;;;5046891;28;20028;-81
2022/09/23 11:23:50;;;;;;;3.88;1.80;;;25.00;62.10;;;;;;5055456;28;20024;-81
2022/09/23 11:26:30;;;;;;;2.88;1.50;;;24.90;61.80;;;;;;4963164;28;20518;-80
2022/09/23 11:29:18;;;;;;;3.00;1.60;;;24.80;62.00;;;;;;4979170;28;20026;-81
2022/09/23 11:31:56;;;;;;;1.95;1.30;;;24.70;61.30;;;;;;5032684;28;20498;-80
2022/09/23 11:34:45;;;;;;;2.00;1.30;;;24.50;60.80;;;;;;5056319;28;20252;-81
2022/09/23 11:37:17;;;;;;;2.20;1.48;;;24.40;63.10;;;;;;5013290;28;20354;-81
2022/09/23 11:39:45;;;;;;;3.15;1.60;;;24.30;62.60;;;;;;5055608;28;20307;-81
2022/09/23 11:42:20;;;;;;;1.80;1.27;;;24.20;63.20;;;;;;5071731;28;20031;-81
2022/09/23 11:44:51;;;;;;;2.38;1.30;;;24.20;62.40;;;;;;5075900;28;20491;-81
2022/09/23 11:47:26;;;;;;;2.30;1.33;;;24.10;63.50;;;;;;5083197;28;20118;-81
2022/09/23 11:49:57;;;;;;;2.00;1.30;;;24.10;63.40;;;;;;5055188;28;20025;-80
2022/09/23 11:52:57;;;;;;;2.85;1.35;;;24.10;64.00;;;;;;5071477;28;20216;-81
2022/09/23 11:55:33;;;;;;;2.45;1.50;;;24.20;64.00;;;;;;5040302;28;20335;-81
2022/09/23 11:58:07;;;;;;;2.15;1.40;;;24.40;64.10;;;;;;5048157;28;20013;-81
2022/09/23 12:00:37;;;;;;;3.03;1.30;;;24.50;64.50;;;;;;5068038;28;20028;-80
2022/09/23 12:03:45;;;;;;;1.95;1.30;;;24.70;64.60;;;;;;5043025;28;20028;-80
2022/09/23 12:06:34;;;;;;;2.42;1.50;;;24.90;63.00;;;;;;5028868;28;20035;-80
2022/09/23 12:09:07;;;;;;;2.15;1.40;;;25.10;65.60;;;;;;5067749;28;20021;-80
2022/09/23 12:11:47;;;;;;;2.38;1.35;;;25.30;65.40;;;;;;5039290;28;20035;-79
2022/09/23 12:14:47;;;;;;;3.10;1.53;;;25.50;63.30;;;;;;5058472;28;20077;-80
2022/09/23 12:17:37;;;;;;;2.03;1.40;;;25.60;61.80;;;;;;5069814;28;20461;-81
2022/09/23 12:20:44;;;;;;;2.15;1.27;;;25.70;62.70;;;;;;5065399;28;20093;-81
2022/09/23 12:23:48;;;;;;;3.22;1.60;;;25.60;60.50;;;;;;5057981;28;20378;-80
2022/09/23 12:26:18;;;;;;;2.47;1.23;;;25.50;60.60;;;;;;5065138;28;20036;-80
2022/09/23 12:28:48;;;;;;;2.73;1.50;;;25.40;61.80;;;;;;5065060;28;20692;-81
2022/09/23 12:31:17;;;;;;;2.45;1.60;;;25.30;62.10;;;;;;5054600;28;20012;-80
2022/09/23 12:33:52;;;;;;;3.15;1.80;;;25.20;62.40;;;;;;5044301;28;20097;-81
2022/09/23 12:36:33;;;;;;;4.32;2.00;;;25.10;60.70;;;;;;5077867;28;20051;-81
2022/09/23 12:39:13;;;;;;;3.10;1.90;;;25.00;61.10;;;;;;5072250;28;20028;-80
2022/09/23 12:41:42;;;;;;;2.70;1.63;;;25.00;61.10;;;;;;5056145;28;20050;-81
2022/09/23 12:44:14;;;;;;;3.08;1.70;;;24.90;61.70;;;;;;5074098;28;20081;-80
2022/09/23 12:46:41;;;;;;;3.65;1.67;;;24.80;61.60;;;;;;5048807;28;20047;-81
2022/09/23 12:49:26;;;;;;;2.63;1.50;;;24.80;61.80;;;;;;5047717;28;20496;-81
2022/09/23 12:52:16;;;;;;;2.90;1.60;;;24.70;60.60;;;;;;5079412;28;20605;-80
2022/09/23 12:54:44;;;;;;;2.13;1.53;;;24.50;60.40;;;;;;5072795;28;20499;-81
2022/09/23 12:57:10;;;;;;;2.40;1.70;;;24.40;61.50;;;;;;5024704;28;20024;-80
2022/09/23 13:00:05;;;;;;;2.58;1.50;;;24.30;61.30;;;;;;5043396;28;20032;-80
2022/09/23 13:02:41;;;;;;;2.88;1.70;;;24.20;60.60;;;;;;5044447;28;20036;-80
2022/09/23 13:07:58;;;;;;;3.63;1.30;;;23.90;61.60;;;;;;5062697;28;20503;-80
2022/09/23 13:10:28;;;;;;;3.25;1.50;;;23.80;60.90;;;;;;5062547;28;20791;-80
2022/09/23 13:12:56;;;;;;;2.92;1.40;;;23.60;61.90;;;;;;5055655;28;20318;-81
2022/09/23 13:15:29;;;;;;;3.15;1.40;;;23.60;62.20;;;;;;5064889;28;20289;-80
2022/09/23 13:18:17;;;;;;;1.75;1.30;;;23.60;61.90;;;;;;5051336;28;20208;-80
2022/09/23 13:20:43;;;;;;;2.33;1.37;;;23.50;61.60;;;;;;5084812;28;20070;-80
2022/09/23 13:23:31;;;;;;;2.85;1.45;;;23.50;62.50;;;;;;5063423;28;20256;-80
2022/09/23 13:25:59;;;;;;;2.22;1.40;;;23.40;61.80;;;;;;5056634;28;20028;-80
2022/09/23 13:28:30;;;;;;;2.95;1.60;;;23.40;62.80;;;;;;5059571;28;20020;-80